Time;durP1;ratioP1;P1;durP2;ratioP2;P2;SDS_P1;SDS_P2;PMS_P1;PMS_P2;Temp;Humidity;BMP_temperature;BMP_pressure;BME280_temperature;BME280_humidity;BME280_pressure;Samples;Min_cycle;Max_cycle;Signal;HPM_P1;HPM_P2
2023/04/06 00:01:30;;;;;;;7.05;4.20;;;3.00;99.90;;;;;;4994032;28;20046;-73
2023/04/06 00:03:56;;;;;;;8.93;4.50;;;3.00;99.90;;;;;;5010885;28;20030;-73
2023/04/06 00:06:21;;;;;;;7.63;4.53;;;3.00;99.90;;;;;;4982824;28;20050;-73
2023/04/06 00:08:47;;;;;;;9.02;4.63;;;3.10;99.90;;;;;;4994436;28;20132;-73
2023/04/06 00:11:13;;;;;;;11.55;4.63;;;3.10;99.90;;;;;;4992293;28;20042;-73
2023/04/06 00:13:38;;;;;;;8.02;4.35;;;3.10;99.90;;;;;;4995157;28;20622;-73
2023/04/06 00:16:05;;;;;;;8.48;4.53;;;3.10;99.90;;;;;;5010680;28;20042;-73
2023/04/06 00:18:31;;;;;;;8.63;4.47;;;3.20;99.90;;;;;;5015366;28;20038;-73
2023/04/06 00:20:56;;;;;;;7.65;4.30;;;3.10;99.90;;;;;;5015589;28;20536;-73
2023/04/06 00:23:22;;;;;;;7.40;4.07;;;3.10;99.90;;;;;;5015652;28;20092;-73
2023/04/06 00:25:47;;;;;;;9.15;5.00;;;3.10;99.90;;;;;;5014917;28;20076;-73
2023/04/06 00:28:13;;;;;;;8.07;4.47;;;3.20;99.90;;;;;;4999365;28;20379;-73
2023/04/06 00:30:39;;;;;;;7.00;4.22;;;3.10;99.90;;;;;;4995252;28;20049;-73
2023/04/06 00:33:05;;;;;;;7.90;4.30;;;3.10;99.90;;;;;;5012307;28;20046;-73
2023/04/06 00:35:30;;;;;;;7.28;4.07;;;3.10;99.90;;;;;;4998152;28;20111;-73
2023/04/06 00:37:56;;;;;;;7.97;4.40;;;3.10;99.90;;;;;;5015476;28;20073;-73
2023/04/06 00:40:22;;;;;;;7.93;4.40;;;3.10;99.90;;;;;;5014591;28;20394;-73
2023/04/06 00:42:47;;;;;;;8.10;4.38;;;3.10;99.90;;;;;;5015360;28;20034;-73
2023/04/06 00:45:13;;;;;;;6.45;4.20;;;3.10;99.90;;;;;;5013353;28;20041;-73
2023/04/06 00:47:38;;;;;;;7.07;4.35;;;3.00;99.90;;;;;;5014491;28;20077;-73
2023/04/06 00:50:05;;;;;;;10.50;4.68;;;3.10;99.90;;;;;;5014596;28;20121;-73
2023/04/06 00:52:30;;;;;;;8.75;4.78;;;3.10;99.90;;;;;;4998975;28;20038;-73
2023/04/06 00:54:56;;;;;;;7.75;4.28;;;3.10;99.90;;;;;;5014507;28;20044;-73
2023/04/06 00:57:21;;;;;;;8.02;4.10;;;3.10;99.90;;;;;;5031428;28;20048;-73
2023/04/06 00:59:47;;;;;;;8.40;4.35;;;3.00;99.90;;;;;;5012729;28;20122;-73
2023/04/06 01:02:13;;;;;;;6.88;4.10;;;3.00;99.90;;;;;;5013832;28;20394;-73
2023/04/06 01:04:39;;;;;;;8.55;4.38;;;3.00;99.90;;;;;;5014785;28;20037;-73
2023/04/06 01:07:04;;;;;;;8.75;4.97;;;2.90;99.90;;;;;;5015145;28;20037;-73
2023/04/06 01:09:30;;;;;;;8.35;4.30;;;2.90;99.90;;;;;;5013991;28;20053;-73
2023/04/06 01:11:57;;;;;;;7.50;4.35;;;2.90;99.90;;;;;;5014618;28;20129;-73
2023/04/06 01:14:23;;;;;;;8.13;4.35;;;2.90;99.90;;;;;;5013812;28;20058;-73
2023/04/06 01:16:49;;;;;;;8.70;4.68;;;2.90;99.90;;;;;;5014579;28;20487;-72
2023/04/06 01:19:15;;;;;;;7.78;4.55;;;2.90;99.90;;;;;;5014069;28;20057;-73
2023/04/06 01:21:41;;;;;;;9.07;4.05;;;2.80;99.90;;;;;;5014090;28;20490;-73
2023/04/06 01:24:08;;;;;;;7.25;4.40;;;2.80;99.90;;;;;;5030709;28;20033;-73
2023/04/06 01:26:34;;;;;;;9.05;4.40;;;2.80;99.90;;;;;;5031020;28;20125;-73
2023/04/06 01:29:00;;;;;;;8.18;4.45;;;2.80;99.90;;;;;;5030986;28;20042;-73
2023/04/06 01:31:26;;;;;;;8.98;4.32;;;2.70;99.90;;;;;;5012734;28;20042;-72
2023/04/06 01:33:52;;;;;;;9.30;4.18;;;2.70;99.90;;;;;;5011872;28;20426;-73
2023/04/06 01:36:18;;;;;;;8.40;4.70;;;2.60;99.90;;;;;;5013857;28;20041;-73
2023/04/06 01:38:44;;;;;;;7.43;4.13;;;2.60;99.90;;;;;;5014145;28;20386;-72
2023/04/06 01:41:10;;;;;;;8.32;4.43;;;2.60;99.90;;;;;;4994670;28;20034;-73
2023/04/06 01:43:36;;;;;;;8.38;4.30;;;2.60;99.90;;;;;;5013405;28;20034;-72
2023/04/06 01:46:01;;;;;;;8.18;4.68;;;2.60;99.90;;;;;;5013130;28;20458;-72
2023/04/06 01:48:27;;;;;;;8.45;4.43;;;2.60;99.90;;;;;;5014170;28;20042;-72
2023/04/06 01:50:53;;;;;;;9.05;4.63;;;2.60;99.90;;;;;;5013325;28;20049;-72
2023/04/06 01:53:19;;;;;;;8.00;4.15;;;2.60;99.90;;;;;;5014101;28;20103;-72
2023/04/06 01:55:45;;;;;;;7.93;4.32;;;2.60;99.90;;;;;;5013089;28;20049;-72
2023/04/06 01:58:11;;;;;;;7.38;4.50;;;2.50;99.90;;;;;;5012452;28;20052;-72
2023/04/06 02:00:36;;;;;;;8.57;4.45;;;2.50;99.90;;;;;;5013261;28;20072;-72
2023/04/06 02:03:02;;;;;;;8.13;4.20;;;2.50;99.90;;;;;;5013972;28;20092;-72
2023/04/06 02:05:30;;;;;;;8.02;3.95;;;2.50;99.90;;;;;;5013003;28;20042;-72
2023/04/06 02:07:56;;;;;;;10.82;4.43;;;2.60;99.90;;;;;;5013976;28;20042;-73
2023/04/06 02:10:21;;;;;;;8.13;4.40;;;2.50;99.90;;;;;;5012844;28;20095;-72
2023/04/06 02:12:47;;;;;;;9.65;4.03;;;2.50;99.90;;;;;;5008235;28;20057;-72
2023/04/06 02:15:13;;;;;;;9.38;4.57;;;2.50;99.90;;;;;;5000280;28;20045;-72
2023/04/06 02:17:39;;;;;;;8.73;5.03;;;2.50;99.90;;;;;;5008900;28;20033;-72
2023/04/06 02:20:05;;;;;;;9.20;4.38;;;2.50;99.90;;;;;;5029484;28;20046;-73
2023/04/06 02:22:31;;;;;;;8.07;4.63;;;2.50;99.90;;;;;;5022539;28;20037;-72
2023/04/06 02:24:57;;;;;;;8.50;4.82;;;2.40;99.90;;;;;;5011978;28;20044;-72
2023/04/06 02:27:22;;;;;;;7.95;4.57;;;2.40;99.90;;;;;;5013284;28;20045;-72
2023/04/06 02:29:48;;;;;;;8.32;4.65;;;2.40;99.90;;;;;;5027531;28;20041;-72
2023/04/06 02:32:14;;;;;;;8.27;4.70;;;2.30;99.90;;;;;;5012120;28;20038;-72
2023/04/06 02:34:39;;;;;;;8.05;4.88;;;2.30;99.90;;;;;;5011649;28;20038;-72
2023/04/06 02:37:05;;;;;;;8.65;4.93;;;2.30;99.90;;;;;;5010908;28;20145;-72
2023/04/06 02:39:31;;;;;;;7.65;4.40;;;2.30;99.90;;;;;;5011159;28;20407;-72
2023/04/06 02:41:57;;;;;;;8.98;4.60;;;2.30;99.90;;;;;;4994165;28;20045;-72
2023/04/06 02:44:22;;;;;;;8.70;4.90;;;2.30;99.90;;;;;;5001370;28;20453;-72
2023/04/06 02:46:48;;;;;;;8.70;4.72;;;2.30;99.90;;;;;;4992706;28;20069;-72
2023/04/06 02:49:13;;;;;;;9.02;4.85;;;2.30;99.90;;;;;;5009848;28;20046;-72
2023/04/06 02:51:39;;;;;;;8.30;4.47;;;2.20;99.90;;;;;;5010722;28;20038;-72
2023/04/06 02:54:05;;;;;;;7.82;4.70;;;2.30;99.90;;;;;;5022348;28;20042;-72
2023/04/06 02:56:30;;;;;;;8.40;4.72;;;2.30;99.90;;;;;;5010775;28;20046;-72
2023/04/06 02:58:56;;;;;;;8.90;4.80;;;2.40;99.90;;;;;;5011411;28;20061;-72
2023/04/06 03:01:22;;;;;;;8.88;5.00;;;2.50;99.90;;;;;;5009661;28;20037;-72
2023/04/06 03:03:47;;;;;;;8.20;4.65;;;2.50;99.90;;;;;;4995597;28;20049;-72
2023/04/06 03:06:13;;;;;;;8.75;4.68;;;2.50;99.90;;;;;;5010931;28;20045;-72
2023/04/06 03:08:38;;;;;;;13.13;4.93;;;2.60;99.90;;;;;;5012170;28;20045;-72
2023/04/06 03:11:04;;;;;;;8.95;4.60;;;2.50;99.90;;;;;;5010857;28;20038;-72
2023/04/06 03:13:29;;;;;;;8.77;4.75;;;2.60;99.90;;;;;;4994347;28;20058;-72
2023/04/06 03:15:55;;;;;;;8.75;4.63;;;2.60;99.90;;;;;;5007909;28;20514;-72
2023/04/06 03:18:23;;;;;;;9.25;4.90;;;2.50;99.90;;;;;;5012518;28;20038;-72
2023/04/06 03:20:48;;;;;;;7.80;4.45;;;2.50;99.90;;;;;;4995104;28;20568;-72
2023/04/06 03:23:14;;;;;;;8.55;4.68;;;2.40;99.90;;;;;;5004146;28;20046;-72
2023/04/06 03:25:40;;;;;;;8.75;4.60;;;2.40;99.90;;;;;;5012366;28;20414;-72
2023/04/06 03:28:05;;;;;;;8.20;4.25;;;2.40;99.90;;;;;;5010857;28;20078;-72
2023/04/06 03:30:31;;;;;;;8.80;5.20;;;2.40;99.90;;;;;;4992114;28;20050;-72
2023/04/06 03:32:57;;;;;;;10.75;4.90;;;2.30;99.90;;;;;;5006512;28;20043;-73
2023/04/06 03:35:22;;;;;;;8.80;4.75;;;2.30;99.90;;;;;;5025087;28;20038;-72
2023/04/06 03:37:48;;;;;;;8.93;4.80;;;2.30;99.90;;;;;;5010824;28;20089;-72
2023/04/06 03:40:13;;;;;;;8.02;4.50;;;2.20;99.90;;;;;;5010307;28;20073;-72
2023/04/06 03:42:39;;;;;;;9.15;5.45;;;2.20;99.90;;;;;;5007837;28;20066;-72
2023/04/06 03:45:05;;;;;;;9.45;5.10;;;2.20;99.90;;;;;;4994033;28;20029;-72
2023/04/06 03:47:31;;;;;;;10.60;5.35;;;2.20;99.90;;;;;;4990813;28;20070;-72
2023/04/06 03:49:56;;;;;;;10.30;5.07;;;2.10;99.90;;;;;;5007526;28;20069;-72
2023/04/06 03:52:23;;;;;;;7.95;4.88;;;2.10;99.90;;;;;;5007700;28;20133;-72
2023/04/06 03:54:49;;;;;;;10.90;5.13;;;2.10;99.90;;;;;;4990189;28;20042;-72
2023/04/06 03:57:14;;;;;;;8.93;4.97;;;2.00;99.90;;;;;;5001688;28;20046;-72
2023/04/06 03:59:40;;;;;;;9.43;5.30;;;2.00;99.90;;;;;;5011236;28;20117;-72
2023/04/06 04:02:05;;;;;;;9.35;4.90;;;2.00;99.90;;;;;;5010861;28;20038;-72
2023/04/06 04:04:31;;;;;;;7.35;4.78;;;2.00;99.90;;;;;;5025329;28;20045;-72
2023/04/06 04:06:56;;;;;;;10.23;5.63;;;2.00;99.90;;;;;;4992037;28;20038;-72
2023/04/06 04:09:22;;;;;;;9.60;5.13;;;2.00;99.90;;;;;;5009098;28;20045;-72
2023/04/06 04:11:47;;;;;;;8.75;5.53;;;2.00;99.90;;;;;;5011270;28;20112;-72
2023/04/06 04:14:13;;;;;;;9.38;5.60;;;2.00;99.90;;;;;;5006027;28;20124;-73
2023/04/06 04:16:39;;;;;;;9.68;5.65;;;2.00;99.90;;;;;;5020075;28;20045;-72
2023/04/06 04:19:05;;;;;;;9.40;5.15;;;2.00;99.90;;;;;;5019983;28;20038;-73
2023/04/06 04:21:31;;;;;;;8.43;5.05;;;2.00;99.90;;;;;;5006109;28;20525;-72
2023/04/06 04:23:57;;;;;;;9.75;5.28;;;2.00;99.90;;;;;;5008650;28;20045;-72
2023/04/06 04:26:22;;;;;;;8.52;5.05;;;2.00;99.90;;;;;;5004600;28;20045;-73
2023/04/06 04:28:48;;;;;;;10.13;5.40;;;2.00;99.90;;;;;;5002056;28;20454;-72
2023/04/06 04:31:13;;;;;;;8.48;5.03;;;2.00;99.90;;;;;;4985421;28;20129;-73
2023/04/06 04:33:39;;;;;;;9.15;5.13;;;1.90;99.90;;;;;;5011853;28;20096;-72
2023/04/06 04:36:05;;;;;;;9.23;5.30;;;1.90;99.90;;;;;;5012818;28;20501;-72
2023/04/06 04:38:30;;;;;;;8.80;5.45;;;1.90;99.90;;;;;;4999490;28;20038;-72
2023/04/06 04:40:56;;;;;;;8.40;5.35;;;1.90;99.90;;;;;;4990135;28;20041;-72
2023/04/06 04:43:21;;;;;;;10.27;5.40;;;1.90;99.90;;;;;;4990110;28;20119;-72
2023/04/06 04:45:47;;;;;;;8.93;5.60;;;1.90;99.90;;;;;;5004524;28;20045;-72
2023/04/06 04:48:12;;;;;;;8.35;5.18;;;1.90;99.90;;;;;;5008497;28;20092;-73
2023/04/06 04:50:38;;;;;;;10.38;5.45;;;1.90;99.90;;;;;;5010148;28;20045;-72
2023/04/06 04:53:05;;;;;;;10.10;5.72;;;1.90;99.90;;;;;;5009965;28;20042;-72
2023/04/06 04:55:31;;;;;;;8.77;5.43;;;1.90;99.90;;;;;;5024599;28;20080;-73
2023/04/06 04:57:57;;;;;;;8.65;5.63;;;1.90;99.90;;;;;;5009938;28;20069;-72
2023/04/06 05:00:23;;;;;;;9.00;5.60;;;1.90;99.90;;;;;;5013996;28;20402;-73
2023/04/06 05:02:48;;;;;;;11.85;6.25;;;1.90;99.90;;;;;;5001949;28;20046;-72
2023/04/06 05:05:14;;;;;;;9.77;5.50;;;1.90;99.90;;;;;;5012969;28;20073;-73
2023/04/06 05:07:40;;;;;;;9.63;5.90;;;1.90;99.90;;;;;;5012994;28;20048;-72
2023/04/06 05:10:06;;;;;;;9.75;5.88;;;1.90;99.90;;;;;;5014265;28;20042;-73
2023/04/06 05:12:32;;;;;;;9.68;5.57;;;1.90;99.90;;;;;;5012673;28;20073;-72
2023/04/06 05:14:57;;;;;;;10.25;6.18;;;1.90;99.90;;;;;;5014091;28;20076;-72
2023/04/06 05:17:23;;;;;;;10.52;5.72;;;1.90;99.90;;;;;;4995920;28;20046;-72
2023/04/06 05:19:48;;;;;;;10.15;6.10;;;1.90;99.90;;;;;;5023430;28;20034;-72
2023/04/06 05:22:17;;;;;;;11.57;7.00;;;1.90;99.90;;;;;;4997334;28;20087;-72
2023/04/06 05:24:43;;;;;;;11.45;5.97;;;1.90;99.90;;;;;;5012712;28;20034;-72
2023/04/06 05:27:08;;;;;;;10.10;6.07;;;1.90;99.90;;;;;;5013942;28;20038;-72
2023/04/06 05:29:34;;;;;;;12.80;6.55;;;1.90;99.90;;;;;;5009497;28;20030;-72
2023/04/06 05:32:00;;;;;;;10.52;6.43;;;1.90;99.90;;;;;;5013882;28;20050;-72
2023/04/06 05:34:26;;;;;;;9.38;6.22;;;1.90;99.90;;;;;;5012548;28;20060;-72
2023/04/06 05:36:51;;;;;;;11.48;6.60;;;1.90;99.90;;;;;;5013312;28;20046;-72
2023/04/06 05:39:17;;;;;;;10.50;6.65;;;2.00;99.90;;;;;;5008075;28;20113;-72
2023/04/06 05:41:42;;;;;;;12.50;6.22;;;2.00;99.90;;;;;;5001728;28;20030;-72
2023/04/06 05:44:08;;;;;;;11.50;5.80;;;2.00;99.90;;;;;;5014238;28;20049;-72
2023/04/06 05:46:34;;;;;;;10.32;6.32;;;2.00;99.90;;;;;;5010492;28;20034;-72
2023/04/06 05:48:59;;;;;;;10.25;6.38;;;2.10;99.90;;;;;;5014129;28;20124;-72
2023/04/06 05:51:26;;;;;;;11.73;6.80;;;2.10;99.90;;;;;;5012076;28;20124;-72
2023/04/06 05:53:52;;;;;;;10.40;6.57;;;2.10;99.90;;;;;;5004723;28;20042;-73
2023/04/06 05:56:17;;;;;;;11.32;6.93;;;2.20;99.90;;;;;;5010061;28;20042;-72
2023/04/06 05:58:43;;;;;;;10.63;6.57;;;2.20;99.90;;;;;;5013438;28;20048;-72
2023/04/06 06:01:09;;;;;;;13.50;7.03;;;2.20;99.90;;;;;;4994224;28;20479;-72
2023/04/06 06:03:35;;;;;;;10.73;7.03;;;2.20;99.90;;;;;;4995761;28;20552;-72
2023/04/06 06:06:02;;;;;;;9.38;6.65;;;2.20;99.90;;;;;;5011941;28;20042;-72
2023/04/06 06:08:28;;;;;;;11.43;7.18;;;2.20;99.90;;;;;;5004734;28;20438;-72
2023/04/06 06:10:54;;;;;;;10.20;7.00;;;2.30;99.90;;;;;;5009632;28;20034;-72
2023/04/06 06:13:21;;;;;;;10.68;6.82;;;2.30;99.90;;;;;;4993854;28;20062;-72
2023/04/06 06:15:47;;;;;;;13.15;7.15;;;2.30;99.90;;;;;;4977942;28;20042;-72
2023/04/06 06:18:12;;;;;;;12.63;7.47;;;2.40;99.90;;;;;;5004885;28;20559;-72
2023/04/06 06:20:38;;;;;;;12.60;7.50;;;2.40;99.90;;;;;;5013761;28;20038;-72
2023/04/06 06:23:03;;;;;;;10.48;6.82;;;2.40;99.90;;;;;;5012816;28;20091;-72
2023/04/06 06:25:30;;;;;;;13.32;7.15;;;2.50;99.90;;;;;;5010170;28;20041;-76
2023/04/06 06:27:56;;;;;;;10.57;6.85;;;2.60;99.90;;;;;;4993098;28;20549;-70
2023/04/06 06:30:22;;;;;;;13.25;7.47;;;2.70;99.90;;;;;;4998504;28;20566;-72
2023/04/06 06:32:48;;;;;;;15.48;8.15;;;2.80;99.90;;;;;;5029943;28;20041;-71
2023/04/06 06:35:13;;;;;;;12.15;7.60;;;2.90;99.90;;;;;;4996668;28;20042;-71
2023/04/06 06:37:39;;;;;;;12.48;7.10;;;2.90;99.90;;;;;;5013205;28;20401;-71
2023/04/06 06:40:05;;;;;;;13.02;7.60;;;2.90;99.90;;;;;;4996886;28;20455;-71
2023/04/06 06:42:31;;;;;;;14.07;8.35;;;3.00;99.90;;;;;;5013102;28;20129;-71
2023/04/06 06:44:57;;;;;;;11.63;7.38;;;3.00;99.90;;;;;;4996662;28;20145;-71
2023/04/06 06:47:22;;;;;;;14.00;8.25;;;3.10;99.90;;;;;;4996789;28;20474;-71
2023/04/06 06:49:48;;;;;;;11.45;7.85;;;3.20;99.90;;;;;;5013223;28;20418;-72
2023/04/06 06:52:14;;;;;;;14.52;7.72;;;3.40;99.90;;;;;;5029428;28;20080;-72
2023/04/06 06:54:40;;;;;;;12.02;7.72;;;3.40;99.90;;;;;;5012695;28;20129;-72
2023/04/06 06:57:05;;;;;;;12.20;8.05;;;3.40;99.90;;;;;;5011445;28;20469;-71
2023/04/06 06:59:31;;;;;;;13.40;7.72;;;3.50;99.90;;;;;;5012973;28;20044;-71
2023/04/06 07:01:56;;;;;;;11.20;7.30;;;3.60;99.90;;;;;;5012747;28;20505;-71
2023/04/06 07:04:22;;;;;;;12.55;7.93;;;3.70;99.90;;;;;;5012600;28;20038;-71
2023/04/06 07:06:47;;;;;;;13.18;7.72;;;3.80;99.90;;;;;;4996363;28;20084;-71
2023/04/06 07:09:13;;;;;;;13.38;7.97;;;3.90;99.90;;;;;;5013002;28;20066;-71
2023/04/06 07:11:38;;;;;;;12.10;7.47;;;4.00;99.90;;;;;;5012944;28;20033;-71
2023/04/06 07:14:04;;;;;;;13.32;8.10;;;4.00;99.90;;;;;;5012389;28;20068;-71
2023/04/06 07:16:30;;;;;;;11.82;7.90;;;4.20;99.90;;;;;;5012498;28;20406;-71
2023/04/06 07:18:56;;;;;;;10.80;7.65;;;4.20;99.90;;;;;;5012505;28;20410;-71
2023/04/06 07:21:21;;;;;;;11.77;7.65;;;4.30;99.90;;;;;;5028599;28;20049;-71
2023/04/06 07:23:47;;;;;;;12.52;8.50;;;4.30;99.90;;;;;;5012482;28;20065;-72
2023/04/06 07:26:13;;;;;;;13.77;7.75;;;4.50;99.90;;;;;;4995143;28;20487;-72
2023/04/06 07:28:39;;;;;;;11.77;8.70;;;4.50;99.90;;;;;;4991819;28;20034;-72
2023/04/06 07:31:05;;;;;;;13.52;8.55;;;4.60;99.90;;;;;;4989798;28;20096;-72
2023/04/06 07:33:31;;;;;;;14.43;8.25;;;4.90;99.90;;;;;;4995232;28;20041;-72
2023/04/06 07:35:58;;;;;;;12.88;8.65;;;5.00;99.90;;;;;;5012012;28;20069;-71
2023/04/06 07:38:23;;;;;;;12.80;7.80;;;5.20;99.90;;;;;;5009991;28;20042;-72
2023/04/06 07:40:49;;;;;;;14.18;9.20;;;5.30;99.90;;;;;;5009466;28;20441;-72
2023/04/06 07:43:16;;;;;;;12.93;8.40;;;5.50;99.90;;;;;;4996102;28;20065;-71
2023/04/06 07:45:41;;;;;;;11.63;8.40;;;5.60;99.90;;;;;;4976275;28;20042;-71
2023/04/06 07:48:07;;;;;;;14.30;8.95;;;5.90;99.90;;;;;;5008640;28;20442;-71
2023/04/06 07:50:33;;;;;;;12.75;8.60;;;6.10;99.90;;;;;;5010133;28;20041;-71
2023/04/06 07:52:59;;;;;;;12.13;7.80;;;6.30;99.90;;;;;;5012145;28;20046;-71
2023/04/06 07:55:25;;;;;;;12.27;8.10;;;6.50;99.90;;;;;;4991357;28;20096;-71
2023/04/06 07:57:50;;;;;;;13.15;8.68;;;6.60;99.90;;;;;;4998212;28;20116;-71
2023/04/06 08:00:16;;;;;;;13.55;8.40;;;6.70;99.90;;;;;;5011357;28;20099;-71
2023/04/06 08:02:42;;;;;;;12.48;8.10;;;6.90;99.90;;;;;;5028725;28;20528;-72
2023/04/06 08:05:08;;;;;;;13.25;8.40;;;7.10;99.90;;;;;;5011947;28;20042;-72
2023/04/06 08:07:35;;;;;;;12.35;8.43;;;7.20;99.90;;;;;;5012261;28;20069;-71
2023/04/06 08:10:01;;;;;;;13.60;8.88;;;7.30;99.90;;;;;;5009333;28;20077;-71
2023/04/06 08:12:27;;;;;;;13.95;8.40;;;7.50;99.90;;;;;;5009904;28;20908;-71
2023/04/06 08:14:52;;;;;;;12.60;7.72;;;7.60;99.90;;;;;;4983729;28;20034;-71
2023/04/06 08:17:18;;;;;;;13.10;8.68;;;7.70;99.90;;;;;;5009458;28;20042;-72
2023/04/06 08:19:44;;;;;;;11.98;7.25;;;7.80;99.90;;;;;;5011877;28;20069;-72
2023/04/06 08:22:10;;;;;;;13.20;8.32;;;7.90;99.90;;;;;;5012145;28;20034;-71
2023/04/06 08:24:36;;;;;;;12.60;7.55;;;8.10;99.90;;;;;;4994595;28;20045;-71
2023/04/06 08:27:02;;;;;;;12.60;8.20;;;8.20;99.90;;;;;;5011734;28;20491;-71
2023/04/06 08:29:27;;;;;;;12.90;8.25;;;8.30;99.90;;;;;;4993209;28;20038;-71
2023/04/06 08:31:53;;;;;;;13.15;7.95;;;8.30;99.90;;;;;;4976259;28;20061;-71
2023/04/06 08:34:18;;;;;;;13.68;8.68;;;8.30;99.90;;;;;;4994583;28;20053;-71
2023/04/06 08:36:45;;;;;;;14.30;8.57;;;8.50;99.90;;;;;;4995825;28;20046;-71
2023/04/06 08:39:11;;;;;;;12.25;8.32;;;8.60;99.90;;;;;;5008580;28;20092;-71
2023/04/06 08:41:37;;;;;;;13.90;8.55;;;8.70;99.90;;;;;;5015427;28;20502;-71
2023/04/06 08:44:03;;;;;;;11.85;8.30;;;8.70;99.90;;;;;;5013061;28;20092;-71
2023/04/06 08:46:30;;;;;;;14.07;8.30;;;8.80;99.90;;;;;;5015077;28;20487;-71
2023/04/06 08:48:57;;;;;;;12.82;8.00;;;9.00;99.90;;;;;;4997940;28;20033;-71
2023/04/06 08:51:26;;;;;;;11.23;7.60;;;9.10;99.90;;;;;;5013730;28;20081;-71
2023/04/06 08:53:54;;;;;;;12.48;7.95;;;9.20;99.90;;;;;;5012782;28;20088;-71
2023/04/06 08:56:21;;;;;;;12.23;8.73;;;9.30;99.90;;;;;;5009219;28;20042;-71
2023/04/06 08:58:48;;;;;;;14.68;8.68;;;9.50;99.90;;;;;;5018107;28;20038;-71
2023/04/06 09:01:16;;;;;;;11.15;7.22;;;9.60;99.90;;;;;;4996887;28;20042;-67
2023/04/06 09:03:43;;;;;;;12.07;7.70;;;9.70;99.90;;;;;;4998216;28;20034;-71
2023/04/06 09:06:09;;;;;;;12.93;7.43;;;9.90;99.90;;;;;;4997966;28;20379;-71
2023/04/06 09:08:37;;;;;;;15.43;8.68;;;9.90;99.90;;;;;;5012598;28;20046;-71
2023/04/06 09:11:03;;;;;;;12.93;8.30;;;10.00;99.90;;;;;;5031495;28;20053;-71
2023/04/06 09:13:29;;;;;;;12.02;7.10;;;10.30;99.90;;;;;;5014021;28;20054;-71
2023/04/06 09:16:03;;;;;;;13.77;7.80;;;10.40;99.00;;;;;;4996252;28;20054;-71
2023/04/06 09:18:32;;;;;;;12.00;8.30;;;10.40;99.50;;;;;;5014268;28;20125;-71
2023/04/06 09:21:06;;;;;;;13.23;7.85;;;10.50;99.90;;;;;;5014913;28;20398;-71
2023/04/06 09:23:32;;;;;;;13.65;9.45;;;10.50;99.90;;;;;;5030399;28;20073;-71
2023/04/06 09:26:15;;;;;;;11.45;5.88;;;10.70;98.70;;;;;;5011036;28;20038;-71
2023/04/06 09:28:46;;;;;;;10.35;5.43;;;10.90;97.10;;;;;;5013768;28;20042;-73
2023/04/06 09:31:13;;;;;;;14.18;9.40;;;11.00;91.10;;;;;;5014507;28;20077;-74
2023/04/06 09:33:40;;;;;;;15.30;9.30;;;10.80;92.20;;;;;;5011059;28;20096;-73
2023/04/06 09:36:09;;;;;;;14.43;9.23;;;10.80;90.60;;;;;;5013490;28;20506;-74
2023/04/06 09:38:36;;;;;;;15.02;8.63;;;10.60;93.10;;;;;;5016578;28;20030;-71
2023/04/06 09:41:02;;;;;;;14.20;9.20;;;10.80;90.00;;;;;;5027278;28;20022;-71
2023/04/06 09:43:28;;;;;;;15.98;8.63;;;10.70;92.00;;;;;;5009885;28;20549;-71
2023/04/06 09:45:56;;;;;;;14.82;8.70;;;10.70;89.40;;;;;;5013703;28;20045;-71
2023/04/06 09:48:24;;;;;;;13.23;7.38;;;10.80;86.60;;;;;;5013707;28;20109;-71
2023/04/06 09:50:59;;;;;;;14.20;8.63;;;10.70;87.80;;;;;;4996974;28;20081;-71
2023/04/06 09:53:28;;;;;;;16.10;10.73;;;10.70;87.40;;;;;;5013295;28;20085;-70
2023/04/06 09:56:00;;;;;;;13.32;8.00;;;10.70;87.30;;;;;;5012397;28;20046;-71
2023/04/06 09:58:26;;;;;;;16.10;8.98;;;10.90;87.10;;;;;;5013257;28;20041;-71
2023/04/06 10:01:06;;;;;;;15.55;8.18;;;10.90;86.50;;;;;;4995726;28;20026;-70
2023/04/06 10:03:54;;;;;;;10.43;6.43;;;10.80;87.60;;;;;;5012450;28;20030;-71
2023/04/06 10:06:25;;;;;;;16.88;10.50;;;10.90;91.30;;;;;;4996056;28;20050;-71
2023/04/06 10:08:54;;;;;;;15.60;8.68;;;11.00;90.10;;;;;;5015544;28;20050;-70
2023/04/06 10:11:20;;;;;;;16.35;10.55;;;11.00;91.00;;;;;;5016123;28;20100;-71
2023/04/06 10:13:48;;;;;;;16.80;7.82;;;11.10;87.80;;;;;;4996642;28;20057;-71
2023/04/06 10:16:15;;;;;;;18.42;11.55;;;11.00;88.50;;;;;;5017422;28;20119;-71
2023/04/06 10:18:46;;;;;;;22.38;12.10;;;11.00;89.00;;;;;;5012609;28;20494;-71
2023/04/06 10:21:17;;;;;;;16.83;10.55;;;11.10;90.10;;;;;;5029943;28;20540;-71
2023/04/06 10:23:49;;;;;;;15.70;8.23;;;11.10;91.00;;;;;;5005862;28;20079;-71
2023/04/06 10:26:17;;;;;;;20.33;11.30;;;11.30;85.20;;;;;;5009949;28;20053;-71
2023/04/06 10:28:45;;;;;;;20.50;12.70;;;11.30;89.80;;;;;;5016185;28;20057;-71
2023/04/06 10:31:11;;;;;;;19.25;12.68;;;11.40;87.10;;;;;;5010793;28;20077;-66
2023/04/06 10:33:36;;;;;;;19.38;10.48;;;11.30;90.40;;;;;;5010351;28;20073;-71
2023/04/06 10:36:21;;;;;;;17.42;9.68;;;11.50;90.40;;;;;;5010374;28;20041;-71
2023/04/06 10:38:47;;;;;;;19.15;13.10;;;11.50;90.00;;;;;;5007913;28;20033;-71
2023/04/06 10:41:13;;;;;;;19.63;10.68;;;11.50;90.40;;;;;;5011642;28;20107;-71
2023/04/06 10:43:40;;;;;;;20.80;13.85;;;11.50;90.40;;;;;;5029609;28;20066;-71
2023/04/06 10:46:08;;;;;;;23.75;15.30;;;11.60;90.30;;;;;;5013291;28;20050;-71
2023/04/06 10:48:38;;;;;;;22.80;13.98;;;11.60;90.70;;;;;;5011951;28;20041;-71
2023/04/06 10:51:09;;;;;;;22.35;14.43;;;11.50;90.40;;;;;;5012974;28;20490;-71
2023/04/06 10:53:35;;;;;;;24.60;15.18;;;11.50;91.20;;;;;;5012921;28;20092;-71
2023/04/06 10:56:02;;;;;;;22.42;15.35;;;11.50;90.30;;;;;;5012233;28;20477;-71
2023/04/06 10:58:27;;;;;;;21.50;15.27;;;11.50;90.80;;;;;;5011199;28;20458;-71
2023/04/06 11:00:55;;;;;;;21.92;13.40;;;11.50;90.80;;;;;;5011361;28;20038;-71
2023/04/06 11:03:21;;;;;;;19.75;13.70;;;11.60;91.80;;;;;;5012104;28;20069;-71
2023/04/06 11:05:48;;;;;;;19.08;12.48;;;11.80;88.60;;;;;;5012017;28;20409;-71
2023/04/06 11:08:24;;;;;;;22.95;15.60;;;12.00;88.10;;;;;;5028431;28;20379;-71
2023/04/06 11:10:50;;;;;;;27.52;16.45;;;12.00;91.60;;;;;;5012688;28;20647;-71
2023/04/06 11:13:17;;;;;;;24.08;17.13;;;12.10;89.60;;;;;;5008618;28;20059;-71
2023/04/06 11:15:42;;;;;;;26.75;16.55;;;12.10;87.00;;;;;;5009807;28;20034;-72
2023/04/06 11:18:08;;;;;;;26.67;17.00;;;12.10;87.00;;;;;;5008965;28;20038;-71
2023/04/06 11:20:34;;;;;;;23.60;13.77;;;12.10;84.30;;;;;;5029253;28;20390;-71
2023/04/06 11:22:59;;;;;;;20.05;11.90;;;12.10;84.50;;;;;;5010156;28;20478;-71
2023/04/06 11:25:29;;;;;;;26.27;17.45;;;12.10;85.20;;;;;;5011739;28;20061;-71
2023/04/06 11:27:55;;;;;;;24.98;16.90;;;12.00;86.50;;;;;;4995406;28;20065;-71
2023/04/06 11:30:21;;;;;;;18.48;11.82;;;11.90;89.70;;;;;;4996313;28;20041;-71
2023/04/06 11:32:46;;;;;;;22.83;15.75;;;12.00;87.00;;;;;;5011675;28;20034;-72
2023/04/06 11:35:20;;;;;;;23.58;14.73;;;12.10;84.50;;;;;;4995899;28;20040;-71
2023/04/06 11:37:46;;;;;;;25.50;16.15;;;12.20;87.20;;;;;;5011240;28;20050;-71
2023/04/06 11:40:11;;;;;;;25.10;16.40;;;12.10;86.40;;;;;;5013148;28;20456;-72
2023/04/06 11:42:37;;;;;;;21.35;12.25;;;12.20;87.90;;;;;;5011503;28;20038;-71
2023/04/06 11:45:03;;;;;;;23.80;14.55;;;12.30;84.10;;;;;;5026443;28;20113;-71
2023/04/06 11:47:37;;;;;;;25.10;15.27;;;12.30;85.20;;;;;;5011008;28;20034;-71
2023/04/06 11:50:10;;;;;;;29.08;17.40;;;12.40;85.30;;;;;;4995961;28;20474;-71
2023/04/06 11:52:36;;;;;;;28.42;18.05;;;12.40;87.80;;;;;;4992175;28;20043;-72
2023/04/06 11:55:16;;;;;;;24.52;16.83;;;12.40;87.10;;;;;;4993077;28;20092;-71
2023/04/06 11:57:42;;;;;;;22.42;14.15;;;12.50;83.40;;;;;;5011467;28;20049;-71
2023/04/06 12:00:09;;;;;;;24.10;17.05;;;12.50;85.20;;;;;;4996472;28;20046;-72
2023/04/06 12:02:36;;;;;;;25.60;15.02;;;12.40;84.50;;;;;;5005002;28;20065;-71
2023/04/06 12:05:03;;;;;;;24.08;15.80;;;12.40;83.90;;;;;;5011998;28;20494;-71
2023/04/06 12:07:30;;;;;;;23.67;13.68;;;12.50;83.30;;;;;;5013336;28;20433;-71
2023/04/06 12:09:55;;;;;;;27.85;17.45;;;12.50;82.00;;;;;;5012647;28;20053;-71
2023/04/06 12:12:21;;;;;;;25.15;16.45;;;12.40;79.90;;;;;;5015750;28;20041;-71
2023/04/06 12:14:47;;;;;;;19.38;11.55;;;12.20;84.40;;;;;;5000140;28;20498;-72
2023/04/06 12:17:12;;;;;;;24.98;15.68;;;12.30;79.70;;;;;;5015015;28;20070;-71
2023/04/06 12:19:38;;;;;;;18.75;10.98;;;12.30;80.50;;;;;;5013568;28;20073;-72
2023/04/06 12:22:03;;;;;;;24.80;16.85;;;12.30;83.60;;;;;;5035363;28;20033;-71
2023/04/06 12:24:29;;;;;;;25.80;17.20;;;12.30;85.10;;;;;;5035491;28;20037;-71
2023/04/06 12:26:55;;;;;;;22.35;13.85;;;12.30;81.70;;;;;;4986973;28;20077;-72
2023/04/06 12:29:20;;;;;;;27.33;18.02;;;12.40;83.20;;;;;;5013806;28;20506;-71
2023/04/06 12:31:46;;;;;;;21.50;9.68;;;12.50;80.10;;;;;;5015896;28;20045;-71
2023/04/06 12:34:12;;;;;;;26.42;17.85;;;12.40;78.50;;;;;;4999354;28;20042;-71
2023/04/06 12:36:38;;;;;;;28.10;17.95;;;12.30;82.40;;;;;;5015509;28;20042;-69
2023/04/06 12:39:04;;;;;;;26.92;16.70;;;12.30;82.40;;;;;;5015499;28;20172;-69
2023/04/06 12:41:30;;;;;;;27.83;18.75;;;12.30;81.80;;;;;;5015659;28;20244;-69